Time,TemperatureF,DewpointF,PressureIn,WindDirection,WindDirectionDegrees,WindSpeedMPH,WindSpeedGustMPH,Humidity,HourlyPrecipIn,Conditions,Clouds,dailyrainin,SoftwareType,DateUTC
2013-06-13 00:02:00,55.0,50.0,-100.00,North,5,0.0,2.0,82,-99.99,,,-99.99,,2013-06-13 05:02:00,
2013-06-13 00:11:00,53.0,50.0,-100.00,NNE,20,0.0,1.0,91,-99.99,,,-99.99,,2013-06-13 05:11:00,
2013-06-13 00:33:00,53.0,50.0,-100.00,NNE,20,0.0,1.0,91,-99.99,,,-99.99,,2013-06-13 05:33:00,
2013-06-13 00:43:00,53.0,50.0,-100.00,NNE,20,0.0,1.0,91,-99.99,,,-99.99,,2013-06-13 05:43:00,
2013-06-13 00:53:00,53.0,50.0,-100.00,NNE,20,0.0,1.0,91,-99.99,,,-99.99,,2013-06-13 05:53:00,
2013-06-13 01:02:00,53.0,50.0,-100.00,NNE,20,0.0,1.0,91,-99.99,,,-99.99,,2013-06-13 06:02:00,
2013-06-13 01:11:00,51.0,49.0,-100.00,NE,35,2.0,3.0,95,-99.99,,,-99.99,,2013-06-13 06:11:00,
2013-06-13 01:33:00,51.0,49.0,-100.00,NE,35,2.0,3.0,95,-99.99,,,-99.99,,2013-06-13 06:33:00,
2013-06-13 01:44:00,51.0,49.0,-100.00,NE,35,2.0,3.0,95,-99.99,,,-99.99,,2013-06-13 06:44:00,
2013-06-13 01:52:00,51.0,49.0,-100.00,NE,35,2.0,3.0,95,-99.99,,,-99.99,,2013-06-13 06:52:00,
2013-06-13 02:01:00,51.0,49.0,-100.00,NE,35,2.0,3.0,95,-99.99,,,-99.99,,2013-06-13 07:01:00,
2013-06-13 02:11:00,50.0,49.0,-100.00,NE,45,2.0,4.0,96,-99.99,,,-99.99,,2013-06-13 07:11:00,
2013-06-13 02:33:00,50.0,49.0,-100.00,NE,45,2.0,4.0,96,-99.99,,,-99.99,,2013-06-13 07:33:00,
2013-06-13 02:42:00,50.0,49.0,-100.00,NE,45,2.0,4.0,96,-99.99,,,-99.99,,2013-06-13 07:42:00,
2013-06-13 02:52:00,50.0,49.0,-100.00,NE,45,2.0,4.0,96,-99.99,,,-99.99,,2013-06-13 07:52:00,
2013-06-13 03:01:00,50.0,49.0,-100.00,NE,45,2.0,4.0,96,-99.99,,,-99.99,,2013-06-13 08:01:00,
2013-06-13 03:12:00,52.0,51.0,-100.00,NNE,15,5.0,10.0,97,-99.99,,,-99.99,,2013-06-13 08:12:00,
2013-06-13 03:32:00,52.0,51.0,-100.00,NNE,15,5.0,10.0,97,-99.99,,,-99.99,,2013-06-13 08:32:00,
2013-06-13 03:43:00,52.0,51.0,-100.00,NNE,15,5.0,10.0,97,-99.99,,,-99.99,,2013-06-13 08:43:00,
2013-06-13 03:52:00,52.0,51.0,-100.00,NNE,15,5.0,10.0,97,-99.99,,,-99.99,,2013-06-13 08:52:00,
2013-06-13 04:02:00,52.0,51.0,-100.00,NNE,15,5.0,10.0,97,-99.99,,,-99.99,,2013-06-13 09:02:00,
2013-06-13 04:11:00,54.0,48.0,-100.00,NNE,20,5.0,13.0,78,-99.99,,,-99.99,,2013-06-13 09:11:00,
2013-06-13 04:32:00,54.0,48.0,-100.00,NNE,20,5.0,13.0,78,-99.99,,,-99.99,,2013-06-13 09:32:00,
2013-06-13 04:42:00,54.0,48.0,-100.00,NNE,20,5.0,13.0,78,-99.99,,,-99.99,,2013-06-13 09:42:00,
2013-06-13 04:52:00,54.0,48.0,-100.00,NNE,20,5.0,13.0,78,-99.99,,,-99.99,,2013-06-13 09:52:00,
2013-06-13 05:01:00,54.0,48.0,-100.00,NNE,20,5.0,13.0,78,-99.99,,,-99.99,,2013-06-13 10:01:00,
2013-06-13 05:33:00,54.0,48.0,-100.00,North,5,6.0,14.0,80,-99.99,,,-99.99,,2013-06-13 10:33:00,
2013-06-13 05:43:00,54.0,48.0,-100.00,North,5,6.0,14.0,80,-99.99,,,-99.99,,2013-06-13 10:43:00,
2013-06-13 05:53:00,54.0,48.0,-100.00,North,5,6.0,14.0,80,-99.99,,,-99.99,,2013-06-13 10:53:00,
2013-06-13 06:02:00,54.0,48.0,-100.00,North,5,6.0,14.0,80,-99.99,,,-99.99,,2013-06-13 11:02:00,
2013-06-13 06:11:00,54.0,48.0,-100.00,North,5,6.0,14.0,80,-99.99,,,-99.99,,2013-06-13 11:11:00,
2013-06-13 06:32:00,53.0,48.0,-100.00,NNE,25,7.0,17.0,83,-99.99,,,-99.99,,2013-06-13 11:32:00,
2013-06-13 06:42:00,53.0,48.0,-100.00,NNE,25,7.0,17.0,83,-99.99,,,-99.99,,2013-06-13 11:42:00,
2013-06-13 06:52:00,53.0,48.0,-100.00,NNE,25,7.0,17.0,83,-99.99,,,-99.99,,2013-06-13 11:52:00,
2013-06-13 07:01:00,53.0,48.0,-100.00,NNE,25,7.0,17.0,83,-99.99,,,-99.99,,2013-06-13 12:01:00,
2013-06-13 07:11:00,53.0,48.0,-100.00,NNE,25,7.0,17.0,83,-99.99,,,-99.99,,2013-06-13 12:11:00,
2013-06-13 07:35:00,56.0,48.0,-100.00,North,0,5.0,12.0,77,-99.99,,,-99.99,,2013-06-13 12:35:00,
2013-06-13 07:43:00,56.0,48.0,-100.00,North,0,5.0,12.0,77,-99.99,,,-99.99,,2013-06-13 12:43:00,
2013-06-13 07:52:00,56.0,48.0,-100.00,North,0,5.0,12.0,77,-99.99,,,-99.99,,2013-06-13 12:52:00,
2013-06-13 08:01:00,56.0,48.0,-100.00,North,0,5.0,12.0,77,-99.99,,,-99.99,,2013-06-13 13:01:00,
2013-06-13 08:11:00,56.0,48.0,-100.00,North,0,5.0,12.0,77,-99.99,,,-99.99,,2013-06-13 13:11:00,
2013-06-13 08:33:00,60.0,48.0,-100.00,North,10,4.0,16.0,65,-99.99,,,-99.99,,2013-06-13 13:33:00,
2013-06-13 08:43:00,60.0,48.0,-100.00,North,10,4.0,16.0,65,-99.99,,,-99.99,,2013-06-13 13:43:00,
2013-06-13 08:53:00,60.0,48.0,-100.00,North,10,4.0,16.0,65,-99.99,,,-99.99,,2013-06-13 13:53:00,
2013-06-13 09:02:00,60.0,48.0,-100.00,North,10,4.0,16.0,65,-99.99,,,-99.99,,2013-06-13 14:02:00,
2013-06-13 09:11:00,60.0,48.0,-100.00,North,10,4.0,16.0,65,-99.99,,,-99.99,,2013-06-13 14:11:00,
2013-06-13 09:33:00,62.0,47.0,-100.00,North,10,8.0,15.0,59,-99.99,,,-99.99,,2013-06-13 14:33:00,
2013-06-13 09:43:00,62.0,47.0,-100.00,North,10,8.0,15.0,59,-99.99,,,-99.99,,2013-06-13 14:43:00,
2013-06-13 09:53:00,62.0,47.0,-100.00,North,10,8.0,15.0,59,-99.99,,,-99.99,,2013-06-13 14:53:00,
2013-06-13 10:02:00,62.0,47.0,-100.00,North,10,8.0,15.0,59,-99.99,,,-99.99,,2013-06-13 15:02:00,
2013-06-13 10:12:00,62.0,47.0,-100.00,North,10,8.0,15.0,59,-99.99,,,-99.99,,2013-06-13 15:12:00,
2013-06-13 10:33:00,64.0,47.0,-100.00,North,10,8.0,13.0,53,-99.99,,,-99.99,,2013-06-13 15:33:00,
2013-06-13 10:43:00,64.0,47.0,-100.00,North,10,8.0,13.0,53,-99.99,,,-99.99,,2013-06-13 15:43:00,
2013-06-13 10:53:00,64.0,47.0,-100.00,North,10,8.0,13.0,53,-99.99,,,-99.99,,2013-06-13 15:53:00,
2013-06-13 11:02:00,64.0,47.0,-100.00,North,10,8.0,13.0,53,-99.99,,,-99.99,,2013-06-13 16:02:00,
2013-06-13 11:11:00,67.0,47.0,-100.00,North,0,9.0,16.0,50,-99.99,,,-99.99,,2013-06-13 16:11:00,
2013-06-13 11:12:00,64.0,47.0,-100.00,North,10,8.0,13.0,53,-99.99,,,-99.99,,2013-06-13 16:12:00,
2013-06-13 11:33:00,67.0,47.0,-100.00,North,0,9.0,16.0,50,-99.99,,,-99.99,,2013-06-13 16:33:00,
2013-06-13 11:43:00,67.0,47.0,-100.00,North,0,9.0,16.0,50,-99.99,,,-99.99,,2013-06-13 16:43:00,
2013-06-13 11:53:00,67.0,47.0,-100.00,North,0,9.0,16.0,50,-99.99,,,-99.99,,2013-06-13 16:53:00,
2013-06-13 12:02:00,67.0,47.0,-100.00,North,0,9.0,16.0,50,-99.99,,,-99.99,,2013-06-13 17:02:00,
2013-06-13 12:10:00,68.0,47.0,-100.00,NNE,15,9.0,14.0,47,-99.99,,,-99.99,,2013-06-13 17:10:00,
2013-06-13 12:33:00,68.0,47.0,-100.00,NNE,15,9.0,14.0,47,-99.99,,,-99.99,,2013-06-13 17:33:00,
2013-06-13 12:43:00,68.0,47.0,-100.00,NNE,15,9.0,14.0,47,-99.99,,,-99.99,,2013-06-13 17:43:00,
2013-06-13 12:53:00,68.0,47.0,-100.00,NNE,15,9.0,14.0,47,-99.99,,,-99.99,,2013-06-13 17:53:00,
2013-06-13 13:02:00,68.0,47.0,-100.00,NNE,15,9.0,14.0,47,-99.99,,,-99.99,,2013-06-13 18:02:00,
2013-06-13 13:11:00,71.0,46.0,-100.00,NW,325,6.0,15.0,41,-99.99,,,-99.99,,2013-06-13 18:11:00,
2013-06-13 13:33:00,71.0,46.0,-100.00,NW,325,6.0,15.0,41,-99.99,,,-99.99,,2013-06-13 18:33:00,
2013-06-13 13:43:00,71.0,46.0,-100.00,NW,325,6.0,15.0,41,-99.99,,,-99.99,,2013-06-13 18:43:00,
2013-06-13 13:52:00,71.0,46.0,-100.00,NW,325,6.0,15.0,41,-99.99,,,-99.99,,2013-06-13 18:52:00,
2013-06-13 14:01:00,71.0,46.0,-100.00,NW,325,6.0,15.0,41,-99.99,,,-99.99,,2013-06-13 19:01:00,
2013-06-13 14:33:00,71.0,42.0,-100.00,North,10,9.0,19.0,35,-99.99,,,-99.99,,2013-06-13 19:33:00,
2013-06-13 14:43:00,71.0,42.0,-100.00,North,10,9.0,19.0,35,-99.99,,,-99.99,,2013-06-13 19:43:00,
2013-06-13 14:53:00,71.0,42.0,-100.00,North,10,9.0,19.0,35,-99.99,,,-99.99,,2013-06-13 19:53:00,
2013-06-13 15:01:00,71.0,42.0,-100.00,North,10,9.0,19.0,35,-99.99,,,-99.99,,2013-06-13 20:01:00,
2013-06-13 15:11:00,72.0,42.0,-100.00,NNE,25,7.0,18.0,35,-99.99,,,-99.99,,2013-06-13 20:11:00,
2013-06-13 15:33:00,72.0,42.0,-100.00,NNE,25,7.0,18.0,35,-99.99,,,-99.99,,2013-06-13 20:33:00,
2013-06-13 15:44:00,72.0,42.0,-100.00,NNE,25,7.0,18.0,35,-99.99,,,-99.99,,2013-06-13 20:44:00,
2013-06-13 15:53:00,72.0,42.0,-100.00,NNE,25,7.0,18.0,35,-99.99,,,-99.99,,2013-06-13 20:53:00,
2013-06-13 16:02:00,72.0,42.0,-100.00,NNE,25,7.0,18.0,35,-99.99,,,-99.99,,2013-06-13 21:02:00,
2013-06-13 16:34:00,72.0,43.0,-100.00,North,5,9.0,17.0,35,-99.99,,,-99.99,,2013-06-13 21:34:00,
2013-06-13 16:43:00,72.0,43.0,-100.00,North,5,9.0,17.0,35,-99.99,,,-99.99,,2013-06-13 21:43:00,
2013-06-13 16:52:00,72.0,43.0,-100.00,North,5,9.0,17.0,35,-99.99,,,-99.99,,2013-06-13 21:52:00,
2013-06-13 17:02:00,72.0,43.0,-100.00,North,5,9.0,17.0,35,-99.99,,,-99.99,,2013-06-13 22:02:00,
2013-06-13 17:33:00,72.0,44.0,-100.00,NE,40,4.0,14.0,36,-99.99,,,-99.99,,2013-06-13 22:33:00,
2013-06-13 17:43:00,72.0,44.0,-100.00,NE,40,4.0,14.0,36,-99.99,,,-99.99,,2013-06-13 22:43:00,
2013-06-13 17:52:00,72.0,44.0,-100.00,NE,40,4.0,14.0,36,-99.99,,,-99.99,,2013-06-13 22:52:00,
2013-06-13 18:02:00,72.0,44.0,-100.00,NE,40,4.0,14.0,36,-99.99,,,-99.99,,2013-06-13 23:02:00,
2013-06-13 18:32:00,70.0,43.0,-100.00,NNE,15,7.0,14.0,38,-99.99,,,-99.99,,2013-06-13 23:32:00,
2013-06-13 18:43:00,70.0,43.0,-100.00,NNE,15,7.0,14.0,38,-99.99,,,-99.99,,2013-06-13 23:43:00,
2013-06-13 18:52:00,70.0,43.0,-100.00,NNE,15,7.0,14.0,38,-99.99,,,-99.99,,2013-06-13 23:52:00,
2013-06-13 19:01:00,70.0,43.0,-100.00,NNE,15,7.0,14.0,38,-99.99,,,-99.99,,2013-06-14 00:01:00,
2013-06-13 19:34:00,68.0,42.0,-100.00,NNE,30,5.0,13.0,39,-99.99,,,-99.99,,2013-06-14 00:34:00,
2013-06-13 19:43:00,68.0,42.0,-100.00,NNE,30,5.0,13.0,39,-99.99,,,-99.99,,2013-06-14 00:43:00,
2013-06-13 19:53:00,68.0,42.0,-100.00,NNE,30,5.0,13.0,39,-99.99,,,-99.99,,2013-06-14 00:53:00,
2013-06-13 20:01:00,68.0,42.0,-100.00,NNE,30,5.0,13.0,39,-99.99,,,-99.99,,2013-06-14 01:01:00,
2013-06-13 20:33:00,65.0,44.0,-100.00,NNE,15,3.0,7.0,47,-99.99,,,-99.99,,2013-06-14 01:33:00,
2013-06-13 20:43:00,65.0,44.0,-100.00,NNE,15,3.0,7.0,47,-99.99,,,-99.99,,2013-06-14 01:43:00,
2013-06-13 20:52:00,65.0,44.0,-100.00,NNE,15,3.0,7.0,47,-99.99,,,-99.99,,2013-06-14 01:52:00,
2013-06-13 21:02:00,65.0,44.0,-100.00,NNE,15,3.0,7.0,47,-99.99,,,-99.99,,2013-06-14 02:02:00,
2013-06-13 21:33:00,58.0,47.0,-100.00,NNW,345,0.0,1.0,67,-99.99,,,-99.99,,2013-06-14 02:33:00,
2013-06-13 21:43:00,58.0,47.0,-100.00,NNW,345,0.0,1.0,67,-99.99,,,-99.99,,2013-06-14 02:43:00,
2013-06-13 21:53:00,58.0,47.0,-100.00,NNW,345,0.0,1.0,67,-99.99,,,-99.99,,2013-06-14 02:53:00,
2013-06-13 22:02:00,58.0,47.0,-100.00,NNW,345,0.0,1.0,67,-99.99,,,-99.99,,2013-06-14 03:02:00,
2013-06-13 22:34:00,52.0,49.0,-100.00,NE,45,1.0,2.0,89,-99.99,,,-99.99,,2013-06-14 03:34:00,
2013-06-13 22:43:00,52.0,49.0,-100.00,NE,45,1.0,2.0,89,-99.99,,,-99.99,,2013-06-14 03:43:00,
2013-06-13 22:53:00,52.0,49.0,-100.00,NE,45,1.0,2.0,89,-99.99,,,-99.99,,2013-06-14 03:53:00,
2013-06-13 23:01:00,52.0,49.0,-100.00,NE,45,1.0,2.0,89,-99.99,,,-99.99,,2013-06-14 04:01:00,
2013-06-13 23:33:00,49.0,48.0,-100.00,North,0,0.0,1.0,95,-99.99,,,-99.99,,2013-06-14 04:33:00,
2013-06-13 23:43:00,49.0,48.0,-100.00,North,0,0.0,1.0,95,-99.99,,,-99.99,,2013-06-14 04:43:00,
2013-06-13 23:53:00,49.0,48.0,-100.00,North,0,0.0,1.0,95,-99.99,,,-99.99,,2013-06-14 04:53:00,